Terminal Aerodrome Forecast
Issued by NWS

Home | Current Version | Previous Version | Text Only | Print | Product List | Glossary On
Versions: 1 2 3 4 5 6 7 8 9 10 11 12 13 14 15 16 17 18 19 20 21 22 23 24 25 26 27 28 29 30 31 32 33 34 35 36 37 38 39 40 41 42 43 44 45 46 47
000
FTPA31 PHFO 281700
TAFLNY
TAF
PHNY 281724Z 2818/2918 06015G25KT P6SM SCT015
     FM281900 05020G30KT P6SM SCT025 BKN035
     FM282300 05022G32KT P6SM SCT025 BKN035
     FM290600 05014G20KT P6SM FEW025 SCT035
      AMD NOT SKED=

USA.gov is the U.S. government's official web portal to all federal, state and local government web resources and services.